createdAt,value
2019-04-21T00:05:10.730Z,78199.19
2019-04-21T00:07:36.499Z,78202.19
2019-04-21T00:10:06.320Z,78200.19
2019-04-21T00:12:38.908Z,78200.19
2019-04-21T00:14:56.822Z,78195.18
2019-04-21T00:17:16.347Z,78196.18
2019-04-21T00:19:49.913Z,78194.18
2019-04-21T00:22:33.156Z,78195.18
2019-04-21T00:24:59.751Z,78193.17
2019-04-21T00:27:31.003Z,78188.17
2019-04-21T00:29:58.225Z,78190.17
2019-04-21T00:32:24.549Z,78209.20
2019-04-21T00:34:36.320Z,78199.19
2019-04-21T00:37:12.180Z,78190.17
2019-04-21T00:40:00.151Z,78178.16
2019-04-21T00:42:18.386Z,78174.16
2019-04-21T00:44:38.130Z,78174.16
2019-04-21T00:47:05.489Z,78171.16
2019-04-21T00:49:35.852Z,78166.14
2019-04-21T00:52:35.320Z,78167.15
2019-04-21T00:54:59.229Z,78164.14
2019-04-21T00:57:21.468Z,78170.16
2019-04-21T00:59:45.438Z,78164.14
2019-04-21T01:02:06.251Z,78168.15
2019-04-21T01:04:44.896Z,78171.16
2019-04-21T01:07:07.254Z,78175.16
2019-04-21T01:09:28.504Z,78175.16
2019-04-21T01:12:01.442Z,78172.16
2019-04-21T01:14:35.855Z,78161.14
2019-04-21T01:17:02.315Z,78158.13
2019-04-21T01:19:22.302Z,78150.13
2019-04-21T01:21:29.940Z,78147.13
2019-04-21T01:24:07.859Z,78143.12
2019-04-21T01:26:32.575Z,78143.12
2019-04-21T01:29:06.672Z,78145.12
2019-04-21T01:31:37.657Z,78142.12
2019-04-21T01:34:08.723Z,78140.11
2019-04-21T01:36:33.340Z,78142.12
2019-04-21T01:39:07.962Z,78142.12
2019-04-21T01:41:37.313Z,78141.11
2019-04-21T01:43:56.890Z,78138.11
2019-04-21T01:46:27.029Z,78137.11
2019-04-21T01:48:50.471Z,78137.11
2019-04-21T01:51:21.007Z,78136.11
2019-04-21T01:53:56.470Z,78136.11
2019-04-21T01:56:38.698Z,78139.11
2019-04-21T01:59:00.861Z,78138.11
2019-04-21T02:01:42.563Z,78138.11
2019-04-21T02:04:07.229Z,78138.11
2019-04-21T02:06:33.169Z,78137.11
2019-04-21T02:08:58.076Z,78139.11
2019-04-21T02:11:31.256Z,78143.12
2019-04-21T02:14:03.907Z,78150.13
2019-04-21T02:16:26.434Z,78146.13
2019-04-21T02:18:53.076Z,78146.13
2019-04-21T02:21:20.365Z,78146.13
2019-04-21T02:23:54.605Z,78147.13
2019-04-21T02:26:21.812Z,78144.12
2019-04-21T02:28:50.516Z,78147.13
2019-04-21T02:31:29.120Z,78144.12
2019-04-21T02:33:56.242Z,78142.12
2019-04-21T02:36:34.526Z,78143.12
2019-04-21T02:38:56.159Z,78139.11
2019-04-21T02:41:09.549Z,78139.11
2019-04-21T02:43:44.914Z,78137.11
2019-04-21T02:46:19.587Z,78139.11
2019-04-21T02:48:39.307Z,78140.11
2019-04-21T02:51:02.989Z,78141.11
2019-04-21T02:53:48.139Z,78140.11
2019-04-21T02:56:00.735Z,78140.11
2019-04-21T03:01:21.221Z,78140.11
2019-04-21T03:03:51.329Z,78138.11
2019-04-21T03:06:15.417Z,78134.11
2019-04-21T03:08:53.957Z,78130.10
2019-04-21T03:13:41.756Z,78127.09
2019-04-21T03:16:23.326Z,78126.09
2019-04-21T03:18:40.098Z,78124.09
2019-04-21T03:23:41.120Z,78126.09
2019-04-21T03:26:03.375Z,78118.09
2019-04-21T03:28:33.251Z,78121.09
2019-04-21T03:31:25.100Z,78122.09
2019-04-21T03:36:13.007Z,78119.09
2019-04-21T03:38:18.955Z,78118.09
2019-04-21T03:40:40.925Z,78115.09
2019-04-21T03:43:12.209Z,78112.08
2019-04-21T03:45:44.502Z,78112.08
2019-04-21T03:48:09.695Z,78116.09
2019-04-21T03:50:33.078Z,78114.08
2019-04-21T03:53:04.662Z,78120.09
2019-04-21T04:03:42.111Z,78119.09
2019-04-21T04:06:09.615Z,78116.09
2019-04-21T04:08:44.708Z,78116.09
2019-04-21T04:11:08.295Z,78114.08
2019-04-21T04:13:29.142Z,78115.09
2019-04-21T04:16:06.129Z,78112.08
2019-04-21T04:18:31.834Z,78110.08
2019-04-21T04:20:45.501Z,78109.08
2019-04-21T04:23:31.542Z,78107.08
2019-04-21T04:25:45.627Z,78107.08
2019-04-21T04:28:28.723Z,78109.08
2019-04-21T04:33:15.469Z,78105.08
2019-04-21T04:35:46.141Z,78110.08
2019-04-21T04:38:03.347Z,78110.08
2019-04-21T04:40:51.353Z,78104.07
2019-04-21T04:43:21.250Z,78107.08
2019-04-21T04:45:32.423Z,78102.07
2019-04-21T04:47:59.194Z,78105.08
2019-04-21T04:50:29.981Z,78102.07
2019-04-21T04:53:15.700Z,78104.07
2019-04-21T04:55:23.608Z,78103.07
2019-04-21T04:57:57.754Z,78099.06
2019-04-21T05:00:19.554Z,78101.07
2019-04-21T05:05:17.309Z,78104.07
2019-04-21T05:10:05.881Z,78106.08
2019-04-21T05:12:29.291Z,78102.07
2019-04-21T05:14:59.391Z,78105.08
2019-04-21T05:24:41.920Z,78100.06
2019-04-21T05:27:07.478Z,78099.06
2019-04-21T05:29:52.580Z,78102.07
2019-04-21T05:32:25.997Z,78098.06
2019-04-21T05:34:55.708Z,78090.05
2019-04-21T05:37:24.705Z,78092.06
2019-04-21T05:39:53.679Z,78088.05
2019-04-21T05:42:10.609Z,78090.05
2019-04-21T05:45:00.144Z,78088.05
2019-04-21T05:47:26.790Z,78094.06
2019-04-21T05:49:55.657Z,78090.05
2019-04-21T05:52:22.569Z,78089.05
2019-04-21T05:54:57.335Z,78088.05
2019-04-21T05:57:22.255Z,78085.05
2019-04-21T05:59:48.859Z,78085.05
2019-04-21T06:02:24.246Z,78086.05
2019-04-21T06:05:15.776Z,78088.05
2019-04-21T06:07:23.136Z,78084.05
2019-04-21T06:09:51.398Z,78084.05
2019-04-21T06:12:11.717Z,78086.05
2019-04-21T06:14:46.535Z,78084.05
2019-04-21T06:17:08.111Z,78086.05
2019-04-21T06:19:43.740Z,78085.05
2019-04-21T06:22:05.769Z,78085.05
2019-04-21T06:24:30.009Z,78082.05
2019-04-21T06:29:23.999Z,78082.05
2019-04-21T06:34:24.358Z,78081.05
2019-04-21T06:41:49.018Z,78074.04
2019-04-21T06:46:59.409Z,78070.03
2019-04-21T06:49:07.012Z,78064.02
2019-04-21T06:51:35.759Z,78064.02
2019-04-21T06:54:09.446Z,78064.02
2019-04-21T06:56:43.881Z,78066.03
2019-04-21T06:59:06.044Z,78056.02
2019-04-21T07:01:39.260Z,78052.02
2019-04-21T07:04:05.942Z,78052.02
2019-04-21T07:06:29.472Z,78050.01
2019-04-21T07:09:03.132Z,78054.02
2019-04-21T07:11:21.752Z,78053.02
2019-04-21T07:14:03.709Z,78052.02
2019-04-21T07:16:19.452Z,78048.00
2019-04-21T07:18:58.618Z,78050.01
2019-04-21T07:21:13.863Z,78052.02
2019-04-21T07:23:47.262Z,78050.01
2019-04-21T07:26:15.374Z,78048.00
2019-04-21T07:28:45.984Z,78045.00
2019-04-21T07:31:14.042Z,78038.00
2019-04-21T07:36:01.323Z,78043.00
2019-04-21T07:38:32.015Z,78031.98
2019-04-21T07:40:55.517Z,78039.00
2019-04-21T07:43:20.452Z,78028.98
2019-04-21T07:45:49.427Z,78022.98
2019-04-21T07:48:24.676Z,78023.98
2019-04-21T07:51:02.129Z,78022.98
2019-04-21T07:53:36.776Z,78023.98
2019-04-21T07:55:35.342Z,78021.98
2019-04-21T07:58:29.012Z,78022.98
2019-04-21T08:00:56.363Z,78023.98
2019-04-21T08:03:24.753Z,78017.97
2019-04-21T08:05:45.791Z,78015.97
2019-04-21T08:08:05.199Z,78013.97
2019-04-21T08:10:40.795Z,78009.97
2019-04-21T08:13:12.290Z,78011.97
2019-04-21T08:15:40.053Z,78008.96
2019-04-21T08:18:07.770Z,78004.95
2019-04-21T08:20:28.492Z,78001.95
2019-04-21T08:23:05.565Z,78003.95
2019-04-21T08:25:34.889Z,77995.95
2019-04-21T08:27:59.778Z,77996.95
2019-04-21T08:30:32.305Z,78001.95
2019-04-21T08:37:57.407Z,77985.94
2019-04-21T08:42:53.174Z,77980.93
2019-04-21T08:45:22.569Z,77974.92
2019-04-21T08:50:15.195Z,77976.92
2019-04-21T08:52:52.214Z,77968.92
2019-04-21T08:55:22.499Z,77954.90
2019-04-21T08:58:00.769Z,77942.89
2019-04-21T09:00:19.793Z,77950.89
2019-04-21T09:02:56.288Z,77955.91
2019-04-21T09:05:23.518Z,77947.89
2019-04-21T09:07:51.264Z,77941.89
2019-04-21T09:10:20.512Z,77950.89
2019-04-21T09:12:46.736Z,77954.90
2019-04-21T09:15:14.167Z,77953.90
2019-04-21T09:17:33.033Z,77954.90
2019-04-21T09:20:13.920Z,77947.89
2019-04-21T09:22:37.913Z,77953.90
2019-04-21T09:25:01.571Z,77957.91
2019-04-21T09:27:35.648Z,77954.90
2019-04-21T09:29:49.462Z,77950.89
2019-04-21T09:32:12.494Z,77945.89
2019-04-21T09:34:41.996Z,77939.88
2019-04-21T09:37:19.105Z,77934.88
2019-04-21T09:39:33.435Z,77928.88
2019-04-21T09:42:02.494Z,77915.86
2019-04-21T09:44:33.403Z,77902.84
2019-04-21T09:46:58.560Z,77901.84
2019-04-21T09:49:27.147Z,77897.84
2019-04-21T09:51:51.010Z,77893.83
2019-04-21T09:54:22.877Z,77889.83
2019-04-21T09:56:51.061Z,77891.83
2019-04-21T09:59:20.705Z,77882.82
2019-04-21T10:01:56.000Z,77877.81
2019-04-21T10:04:07.986Z,77876.81
2019-04-21T10:06:35.000Z,77863.80
2019-04-21T10:09:04.142Z,77861.80
2019-04-21T10:11:28.892Z,77864.80
2019-04-21T10:13:55.147Z,77855.79
2019-04-21T10:16:42.795Z,77855.79
2019-04-21T10:19:08.919Z,77863.80
2019-04-21T10:21:36.028Z,77856.79
2019-04-21T10:24:02.190Z,77851.78
2019-04-21T10:26:28.626Z,77855.79
2019-04-21T10:28:58.621Z,77853.79
2019-04-21T10:31:22.778Z,77851.78
2019-04-21T10:33:48.879Z,77850.78
2019-04-21T10:36:15.202Z,77844.78
2019-04-21T10:38:46.448Z,77835.77
2019-04-21T10:41:09.630Z,77836.77
2019-04-21T10:43:35.752Z,77833.77
2019-04-21T10:46:01.801Z,77823.75
2019-04-21T10:48:28.730Z,77829.77
2019-04-21T10:50:56.918Z,77826.76
2019-04-21T10:53:28.987Z,77829.77
2019-04-21T10:56:09.616Z,77828.77
2019-04-21T10:58:30.196Z,77825.76
2019-04-21T11:00:57.998Z,77820.75
2019-04-21T11:03:38.349Z,77821.75
2019-04-21T11:06:06.542Z,77817.75
2019-04-21T11:08:37.924Z,77811.74
2019-04-21T11:11:01.628Z,77809.74
2019-04-21T11:13:28.361Z,77806.73
2019-04-21T11:15:55.162Z,77810.74
2019-04-21T11:18:21.911Z,77807.73
2019-04-21T11:20:48.927Z,77801.73
2019-04-21T11:23:16.355Z,77803.73
2019-04-21T11:25:43.815Z,77800.73
2019-04-21T11:28:11.118Z,77799.73
2019-04-21T11:30:38.012Z,77791.72
2019-04-21T11:33:04.137Z,77789.72
2019-04-21T11:35:30.910Z,77790.72
2019-04-21T11:38:06.145Z,77787.72
2019-04-21T11:40:27.686Z,77785.72
2019-04-21T11:42:53.842Z,77781.71
2019-04-21T11:45:28.351Z,77776.70
2019-04-21T11:48:14.457Z,77778.70
2019-04-21T11:50:41.346Z,77779.71
2019-04-21T11:53:08.387Z,77771.70
2019-04-21T11:55:39.764Z,77771.70
2019-04-21T11:58:03.461Z,77771.70
2019-04-21T12:00:29.668Z,77766.69
2019-04-21T12:02:55.717Z,77767.70
2019-04-21T12:05:21.780Z,77768.70
2019-04-21T12:07:47.735Z,77770.70
2019-04-21T12:10:13.627Z,77767.70
2019-04-21T12:12:39.537Z,77759.69
2019-04-21T12:15:06.083Z,77757.69
2019-04-21T12:17:32.105Z,77754.68
2019-04-21T12:19:58.990Z,77757.69
2019-04-21T12:22:29.848Z,77750.67
2019-04-21T12:24:53.281Z,77740.67
2019-04-21T12:27:22.271Z,77745.67
2019-04-21T12:29:49.354Z,77745.67
2019-04-21T12:32:33.753Z,77744.67
2019-04-21T12:34:59.904Z,77737.66
2019-04-21T12:37:26.862Z,77735.66
2019-04-21T12:39:54.675Z,77731.66
2019-04-21T12:42:20.872Z,77727.66
2019-04-21T12:44:47.551Z,77725.66
2019-04-21T12:47:14.159Z,77728.66
2019-04-21T12:49:41.335Z,77720.64
2019-04-21T12:52:07.425Z,77717.64
2019-04-21T12:54:33.680Z,77716.64
2019-04-21T12:56:59.747Z,77717.64
2019-04-21T12:59:29.129Z,77713.64
2019-04-21T13:01:54.829Z,77712.64
2019-04-21T13:04:21.827Z,77707.63
2019-04-21T13:06:47.830Z,77702.63
2019-04-21T13:09:17.915Z,77703.63
2019-04-21T13:11:41.510Z,77699.63
2019-04-21T13:14:08.254Z,77694.62
2019-04-21T13:16:34.432Z,77691.62
2019-04-21T13:19:00.490Z,77685.61
2019-04-21T13:21:27.771Z,77688.61
2019-04-21T13:23:54.761Z,77688.61
2019-04-21T13:26:32.010Z,77690.61
2019-04-21T13:28:48.548Z,77675.59
2019-04-21T13:31:14.538Z,77675.59
2019-04-21T13:33:41.920Z,77678.60
2019-04-21T13:36:07.930Z,77673.59
2019-04-21T13:38:42.524Z,77672.59
2019-04-21T13:41:17.782Z,77672.59
2019-04-21T13:43:32.968Z,77667.59
2019-04-21T13:45:59.603Z,77663.59
2019-04-21T13:48:26.450Z,77657.58
2019-04-21T13:50:53.466Z,77656.58
2019-04-21T13:53:22.779Z,77651.58
2019-04-21T13:55:48.871Z,77653.58
2019-04-21T13:58:16.662Z,77651.58
2019-04-21T14:00:42.923Z,77651.58
2019-04-21T14:03:10.271Z,77645.56
2019-04-21T14:05:38.126Z,77643.56
2019-04-21T14:08:05.080Z,77641.56
2019-04-21T14:10:31.625Z,77640.56
2019-04-21T14:12:58.380Z,77635.55
2019-04-21T14:15:24.471Z,77635.55
2019-04-21T14:17:50.908Z,77635.55
2019-04-21T14:20:17.255Z,77636.56
2019-04-21T14:22:44.237Z,77629.55
2019-04-21T14:25:10.315Z,77630.55
2019-04-21T14:27:36.394Z,77623.55
2019-04-21T14:30:04.904Z,77628.55
2019-04-21T14:32:31.832Z,77621.55
2019-04-21T14:34:58.741Z,77624.55
2019-04-21T14:37:26.471Z,77621.55
2019-04-21T14:40:00.464Z,77623.55
2019-04-21T14:42:20.326Z,77620.55
2019-04-21T14:44:46.960Z,77618.54
2019-04-21T14:47:18.827Z,77616.54
2019-04-21T14:49:47.099Z,77616.54
2019-04-21T14:52:15.059Z,77612.53
2019-04-21T14:54:43.033Z,77610.53
2019-04-21T14:57:09.294Z,77612.53
2019-04-21T14:59:35.341Z,77613.53
2019-04-21T15:02:02.164Z,77605.53
2019-04-21T15:04:28.361Z,77610.53
2019-04-21T15:06:55.048Z,77604.52
2019-04-21T15:09:21.192Z,77605.53
2019-04-21T15:11:47.722Z,77607.53
2019-04-21T15:14:13.846Z,77605.53
2019-04-21T15:16:40.806Z,77604.52
2019-04-21T15:19:06.786Z,77600.52
2019-04-21T15:21:33.433Z,77601.52
2019-04-21T15:24:00.436Z,77600.52
2019-04-21T15:26:26.538Z,77593.52
2019-04-21T15:28:52.915Z,77591.52
2019-04-21T15:31:24.185Z,77589.52
2019-04-21T15:33:47.385Z,77590.52
2019-04-21T15:36:13.453Z,77591.52
2019-04-21T15:38:40.142Z,77587.51
2019-04-21T15:41:10.062Z,77588.51
2019-04-21T15:43:34.022Z,77583.50
2019-04-21T15:46:00.639Z,77582.50
2019-04-21T15:48:26.947Z,77583.50
2019-04-21T15:50:56.688Z,77583.50
2019-04-21T15:53:25.668Z,77583.50
2019-04-21T15:56:12.999Z,77583.50
2019-04-21T15:58:41.115Z,77579.50
2019-04-21T16:01:24.849Z,77579.50
2019-04-21T16:03:50.927Z,77579.50
2019-04-21T16:06:17.382Z,77578.50
2019-04-21T16:08:47.609Z,77578.50
2019-04-21T16:11:11.445Z,77578.50
2019-04-21T16:13:37.429Z,77571.48
2019-04-21T16:16:04.307Z,77568.48
2019-04-21T16:18:30.478Z,77562.48
2019-04-21T16:20:57.658Z,77569.48
2019-04-21T16:23:24.507Z,77563.48
2019-04-21T16:25:50.876Z,77566.48
2019-04-21T16:28:17.313Z,77564.48
2019-04-21T16:30:44.642Z,77563.48
2019-04-21T16:33:10.687Z,77560.48
2019-04-21T16:35:37.773Z,77559.48
2019-04-21T16:38:04.187Z,77559.48
2019-04-21T16:40:41.550Z,77559.48
2019-04-21T16:42:58.371Z,77557.48
2019-04-21T16:45:25.263Z,77556.48
2019-04-21T16:47:53.744Z,77556.48
2019-04-21T16:50:19.892Z,77556.48
2019-04-21T16:52:52.157Z,77555.47
2019-04-21T16:55:25.010Z,77554.47
2019-04-21T16:58:06.795Z,77552.47
2019-04-21T17:00:31.438Z,77553.47
2019-04-21T17:02:54.713Z,77550.47
2019-04-21T17:05:20.476Z,77545.47
2019-04-21T17:07:47.103Z,77546.47
2019-04-21T17:10:14.724Z,77539.45
2019-04-21T17:12:41.707Z,77535.45
2019-04-21T17:15:24.334Z,77539.45
2019-04-21T17:17:55.935Z,77536.45
2019-04-21T17:20:21.022Z,77531.45
2019-04-21T17:22:33.581Z,77537.45
2019-04-21T17:25:00.340Z,77538.45
2019-04-21T17:27:27.182Z,77539.45
2019-04-21T17:29:56.642Z,77537.45
2019-04-21T17:32:25.037Z,77540.46
2019-04-21T17:34:52.042Z,77538.45
2019-04-21T17:37:20.642Z,77540.46
2019-04-21T17:39:46.893Z,77533.45
2019-04-21T17:42:25.473Z,77535.45
2019-04-21T17:44:41.261Z,77536.45
2019-04-21T17:47:19.213Z,77532.45
2019-04-21T17:49:35.371Z,77539.45
2019-04-21T17:52:09.796Z,77537.45
2019-04-21T17:54:45.611Z,77535.45
2019-04-21T17:57:26.523Z,77535.45
2019-04-21T18:00:24.038Z,77537.45
2019-04-21T18:02:26.371Z,77535.45
2019-04-21T18:04:50.989Z,77535.45
2019-04-21T18:07:20.636Z,77537.45
2019-04-21T18:09:56.560Z,77538.45
2019-04-21T18:12:11.871Z,77540.46
2019-04-21T18:14:24.488Z,77541.46
2019-04-21T18:16:53.097Z,77534.45
2019-04-21T18:19:19.405Z,77538.45
2019-04-21T18:21:59.185Z,77541.46
2019-04-21T18:24:28.026Z,77543.46
2019-04-21T18:27:00.360Z,77538.45
2019-04-21T18:29:27.620Z,77539.45
2019-04-21T18:31:54.608Z,77543.46
2019-04-21T18:34:30.294Z,77541.46
2019-04-21T18:36:58.814Z,77542.46
2019-04-21T18:39:45.396Z,77544.47
2019-04-21T18:42:26.508Z,77545.47
2019-04-21T18:45:23.884Z,77546.47
2019-04-21T18:47:25.698Z,77553.47
2019-04-21T18:49:42.676Z,77554.47
2019-04-21T18:52:28.003Z,77555.47
2019-04-21T18:54:58.327Z,77555.47
2019-04-21T18:57:22.572Z,77557.48
2019-04-21T18:59:45.169Z,77558.48
2019-04-21T19:02:13.473Z,77556.48
2019-04-21T19:04:38.749Z,77563.48
2019-04-21T19:07:18.161Z,77564.48
2019-04-21T19:10:09.872Z,77567.48
2019-04-21T19:12:23.159Z,77566.48
2019-04-21T19:14:44.713Z,77567.48
2019-04-21T19:22:14.053Z,77567.48
2019-04-21T19:24:48.475Z,77571.48
2019-04-21T19:29:42.518Z,77574.49
2019-04-21T19:32:08.418Z,77577.50
2019-04-21T19:34:25.756Z,77579.50
2019-04-21T19:36:51.308Z,77577.50
2019-04-21T19:39:23.332Z,77577.50
2019-04-21T19:41:56.043Z,77575.49
2019-04-21T19:44:29.338Z,77573.49
2019-04-21T19:46:55.489Z,77574.49
2019-04-21T19:49:29.920Z,77575.49
2019-04-21T19:51:44.021Z,77574.49
2019-04-21T19:54:12.618Z,77571.48
2019-04-21T19:56:28.017Z,77571.48
2019-04-21T19:58:54.976Z,77567.48
2019-04-21T20:01:21.493Z,77572.49
2019-04-21T20:03:51.229Z,77567.48
2019-04-21T20:06:33.098Z,77571.48
2019-04-21T20:09:00.986Z,77572.49
2019-04-21T20:11:30.869Z,77569.48
2019-04-21T20:14:30.340Z,77573.49
2019-04-21T20:16:23.156Z,77569.48
2019-04-21T20:18:40.679Z,77565.48
2019-04-21T20:21:02.212Z,77567.48
2019-04-21T20:23:32.718Z,77567.48
2019-04-21T20:26:02.302Z,77567.48
2019-04-21T20:28:36.946Z,77567.48
2019-04-21T20:31:15.523Z,77571.48
2019-04-21T20:36:12.272Z,77572.49
2019-04-21T20:38:26.430Z,77571.48
2019-04-21T20:40:51.014Z,77572.49
2019-04-21T20:43:31.014Z,77572.49
2019-04-21T20:45:59.284Z,77567.48
2019-04-21T20:48:17.964Z,77572.49
2019-04-21T20:50:49.243Z,77571.48
2019-04-21T20:53:24.937Z,77572.49
2019-04-21T20:55:44.178Z,77571.48
2019-04-21T20:58:06.751Z,77577.50
2019-04-21T21:00:50.777Z,77575.49
2019-04-21T21:03:11.995Z,77569.48
2019-04-21T21:05:30.509Z,77577.50
2019-04-21T21:08:13.680Z,77577.50
2019-04-21T21:10:34.713Z,77578.50
2019-04-21T21:13:08.828Z,77576.50
2019-04-21T21:15:29.168Z,77573.49
2019-04-21T21:18:05.795Z,77577.50
2019-04-21T21:20:24.346Z,77578.50
2019-04-21T21:22:47.824Z,77575.49
2019-04-21T21:25:32.498Z,77581.50
2019-04-21T21:27:47.018Z,77580.50
2019-04-21T21:30:15.788Z,77580.50
2019-04-21T21:32:44.927Z,77576.50
2019-04-21T21:35:13.173Z,77583.50
2019-04-21T21:37:40.980Z,77577.50
2019-04-21T21:40:11.361Z,77579.50
2019-04-21T21:42:26.459Z,77583.50
2019-04-21T21:44:54.602Z,77580.50
2019-04-21T21:47:31.393Z,77585.51
2019-04-21T21:49:58.170Z,77585.51
2019-04-21T21:52:22.408Z,77587.51
2019-04-21T21:54:40.008Z,77582.50
2019-04-21T21:57:06.082Z,77583.50
2019-04-21T21:59:36.481Z,77579.50
2019-04-21T22:02:01.408Z,77585.51
2019-04-21T22:04:30.735Z,77587.51
2019-04-21T22:07:03.783Z,77583.50
2019-04-21T22:09:26.160Z,77586.51
2019-04-21T22:11:56.259Z,77583.50
2019-04-21T22:14:25.921Z,77588.51
2019-04-21T22:17:07.810Z,77586.51
2019-04-21T22:19:32.625Z,77590.52
2019-04-21T22:22:00.964Z,77586.51
2019-04-21T22:24:26.814Z,77587.51
2019-04-21T22:26:39.340Z,77591.52
2019-04-21T22:29:05.595Z,77589.52
2019-04-21T22:31:34.153Z,77588.51
2019-04-21T22:34:05.431Z,77589.52
2019-04-21T22:36:42.714Z,77596.52
2019-04-21T22:39:13.327Z,77593.52
2019-04-21T22:41:33.739Z,77599.52
2019-04-21T22:43:58.951Z,77591.52
2019-04-21T22:46:24.429Z,77593.52
2019-04-21T22:48:53.079Z,77587.51
2019-04-21T22:51:23.987Z,77593.52
2019-04-21T22:53:48.835Z,77594.52
2019-04-21T22:56:20.565Z,77592.52
2019-04-21T22:58:44.022Z,77593.52
2019-04-21T23:01:10.934Z,77594.52
2019-04-21T23:03:40.105Z,77594.52
2019-04-21T23:06:09.775Z,77588.51
2019-04-21T23:08:36.925Z,77593.52
2019-04-21T23:11:05.002Z,77588.51
2019-04-21T23:13:29.306Z,77591.52
2019-04-21T23:15:58.753Z,77591.52
2019-04-21T23:18:40.006Z,77595.52
2019-04-21T23:21:08.431Z,77599.52
2019-04-21T23:23:42.722Z,77590.52
2019-04-21T23:26:09.175Z,77597.52
2019-04-21T23:28:40.390Z,77597.52
2019-04-21T23:31:05.609Z,77595.52
2019-04-21T23:33:14.287Z,77597.52
2019-04-21T23:35:41.807Z,77594.52
2019-04-21T23:38:08.613Z,77594.52
2019-04-21T23:40:35.089Z,77595.52
2019-04-21T23:43:09.532Z,77597.52
2019-04-21T23:45:34.038Z,77591.52
2019-04-21T23:48:10.749Z,77589.52
2019-04-21T23:50:35.196Z,77594.52
2019-04-21T23:52:53.318Z,77592.52
2019-04-21T23:55:19.402Z,77590.52
2019-04-21T23:57:48.375Z,77593.52
